Time;durP1;ratioP1;P1;durP2;ratioP2;P2;SDS_P1;SDS_P2;PMS_P1;PMS_P2;Temp;Humidity;BMP_temperature;BMP_pressure;BME280_temperature;BME280_humidity;BME280_pressure;Samples;Min_cycle;Max_cycle;Signal;HPM_P1;HPM_P2
2020/12/06 00:01:35;;;;;;;29.48;16.37;;;;;;;9.72;65.42;99367.45;2111117;84;28858;-65
2020/12/06 00:04:37;;;;;;;31.35;16.00;;;;;;;9.72;65.38;99369.63;2061323;82;27683;-65
2020/12/06 00:07:40;;;;;;;30.15;15.48;;;;;;;9.72;65.41;99367.45;2103247;82;30214;-65
2020/12/06 00:10:42;;;;;;;30.80;15.50;;;;;;;9.73;65.37;99370.02;2123500;81;30334;-67
2020/12/06 00:13:45;;;;;;;26.77;15.43;;;;;;;9.78;65.33;99368.88;2096629;83;34229;-65
2020/12/06 00:16:49;;;;;;;24.85;14.65;;;;;;;9.80;65.29;99369.16;2074413;83;29177;-65
2020/12/06 00:19:51;;;;;;;23.52;13.15;;;;;;;9.82;65.21;99356.55;2085345;84;27695;-65
2020/12/06 00:22:54;;;;;;;25.65;12.98;;;;;;;9.85;65.22;99353.70;2075108;84;28858;-66
2020/12/06 00:25:56;;;;;;;22.98;13.72;;;;;;;9.87;65.06;99353.13;2086198;83;30951;-67
2020/12/06 00:28:58;;;;;;;22.02;12.90;;;;;;;9.87;65.09;99354.47;2081295;84;34057;-67
2020/12/06 00:32:00;;;;;;;21.73;11.90;;;;;;;9.92;65.01;99338.61;2113666;83;29232;-65
2020/12/06 00:35:04;;;;;;;22.27;12.95;;;;;;;9.93;64.93;99336.32;2089505;84;27772;-66
2020/12/06 00:38:06;;;;;;;23.90;12.80;;;;;;;9.94;65.00;99328.19;2095808;83;28835;-67
2020/12/06 00:41:14;;;;;;;24.15;13.80;;;;;;;9.95;64.96;99338.39;2104191;83;31126;-68
2020/12/06 00:44:17;;;;;;;22.10;12.37;;;;;;;9.95;64.93;99337.94;2144278;83;33774;-66
2020/12/06 00:47:19;;;;;;;19.20;11.25;;;;;;;9.96;64.87;99340.99;2067017;83;29845;-68
2020/12/06 00:50:21;;;;;;;20.75;11.68;;;;;;;10.00;64.80;99330.95;2055682;84;27715;-65
2020/12/06 00:53:23;;;;;;;21.10;11.83;;;;;;;10.06;64.78;99332.38;2030875;85;28119;-67
2020/12/06 00:56:26;;;;;;;25.08;10.88;;;;;;;10.11;64.74;99334.29;2092143;84;31040;-66
2020/12/06 00:59:28;;;;;;;22.70;11.75;;;;;;;10.15;64.65;99333.14;2092077;84;33262;-67
2020/12/06 01:02:31;;;;;;;18.98;11.25;;;;;;;10.21;64.59;99333.23;2031089;85;29113;-67
2020/12/06 01:05:33;;;;;;;17.07;10.20;;;;;;;10.26;64.29;99329.30;2035228;84;27708;-66
2020/12/06 01:08:35;;;;;;;18.37;10.05;;;;;;;10.31;63.98;99335.22;2027759;85;28832;-68
2020/12/06 01:11:37;;;;;;;16.85;10.43;;;;;;;10.38;63.92;99331.70;2090725;84;30743;-66
2020/12/06 01:14:39;;;;;;;17.23;10.75;;;;;;;10.44;63.81;99335.30;2092291;83;33699;-65
2020/12/06 01:17:42;;;;;;;15.58;9.85;;;;;;;10.49;63.75;99339.04;2083321;84;29005;-68
2020/12/06 01:20:44;;;;;;;18.40;8.95;;;;;;;10.53;63.50;99340.53;2085817;81;28177;-66
2020/12/06 01:23:46;;;;;;;16.00;9.20;;;;;;;10.56;62.99;99348.88;2054879;83;28322;-64
2020/12/06 01:26:49;;;;;;;14.40;8.28;;;;;;;10.59;63.26;99343.32;2075725;83;31129;-67
2020/12/06 01:29:51;;;;;;;16.97;9.50;;;;;;;10.60;63.24;99332.50;2046471;82;33191;-67
2020/12/06 01:32:53;;;;;;;18.27;9.88;;;;;;;10.60;63.05;99337.85;2108535;82;29177;-67
2020/12/06 01:35:55;;;;;;;18.02;9.10;;;;;;;10.61;62.94;99335.56;2083750;82;27626;-65
2020/12/06 01:38:58;;;;;;;15.60;9.20;;;;;;;10.61;63.09;99332.88;2097048;82;29777;-67
2020/12/06 01:42:00;;;;;;;15.83;9.63;;;;;;;10.62;62.98;99331.92;2112064;84;31209;-66
2020/12/06 01:45:03;;;;;;;16.45;9.33;;;;;;;10.62;63.09;99330.58;2072811;84;32041;-65
2020/12/06 01:48:09;;;;;;;15.83;9.08;;;;;;;10.60;62.48;99327.60;2096237;82;28936;-64
2020/12/06 01:51:12;;;;;;;13.70;8.68;;;;;;;10.58;62.71;99325.53;2119031;83;27750;-66
2020/12/06 01:54:14;;;;;;;17.42;10.58;;;;;;;10.56;62.27;99323.43;2096284;83;29760;-70
2020/12/06 01:57:16;;;;;;;17.17;10.10;;;;;;;10.58;62.65;99321.02;2065790;84;30961;-67
2020/12/06 02:00:18;;;;;;;19.60;11.93;;;;;;;10.60;62.42;99319.11;2085939;84;33150;-65
2020/12/06 02:03:21;;;;;;;24.72;12.80;;;;;;;10.60;62.53;99307.52;2073314;83;28945;-66
2020/12/06 02:06:23;;;;;;;24.77;12.58;;;;;;;10.59;62.19;99316.05;2081721;84;27741;-66
2020/12/06 02:09:28;;;;;;;27.15;13.45;;;;;;;10.59;62.11;99317.38;2077495;84;28575;-66
2020/12/06 02:12:30;;;;;;;24.75;14.05;;;;;;;10.58;62.11;99317.00;2068610;84;31688;-66
2020/12/06 02:15:34;;;;;;;24.18;12.63;;;;;;;10.56;62.37;99306.02;2067677;84;33112;-65
2020/12/06 02:18:36;;;;;;;32.42;14.43;;;;;;;10.56;62.12;99312.72;2112820;82;29329;-66
2020/12/06 02:21:41;;;;;;;23.47;13.83;;;;;;;10.53;62.28;99317.77;2108556;83;27715;-67
2020/12/06 02:24:43;;;;;;;22.73;12.68;;;;;;;10.52;62.24;99313.38;2078335;84;29950;-67
2020/12/06 02:27:45;;;;;;;24.37;14.25;;;;;;;10.50;62.01;99311.31;2055480;84;31731;-67
2020/12/06 02:30:48;;;;;;;24.45;12.80;;;;;;;10.48;61.84;99307.86;2058438;84;34115;-68
2020/12/06 02:33:50;;;;;;;25.90;14.20;;;;;;;10.46;62.00;99313.30;2080616;84;29168;-69
2020/12/06 02:36:52;;;;;;;24.45;14.20;;;;;;;10.44;61.93;99308.52;2068362;83;27733;-64
2020/12/06 02:39:55;;;;;;;23.10;13.60;;;;;;;10.42;61.92;99320.30;2055430;84;28638;-65
2020/12/06 02:42:57;;;;;;;21.42;13.25;;;;;;;10.38;62.02;99331.70;2067858;83;31900;-67
2020/12/06 02:45:59;;;;;;;23.52;13.15;;;;;;;10.35;61.96;99333.20;2113615;84;34143;-68
2020/12/06 02:49:02;;;;;;;23.02;13.03;;;;;;;10.30;61.81;99330.83;2070447;83;29166;-65
2020/12/06 02:52:04;;;;;;;22.77;13.28;;;;;;;10.32;62.03;99338.74;2126235;83;28370;-64
2020/12/06 02:55:07;;;;;;;20.57;11.97;;;;;;;10.30;62.07;99324.59;2097893;83;28794;-67
2020/12/06 02:58:09;;;;;;;26.97;14.63;;;;;;;10.26;62.04;99317.25;2110300;83;31208;-67
2020/12/06 03:01:11;;;;;;;25.43;13.95;;;;;;;10.26;62.24;99331.97;2090748;84;33170;-65
2020/12/06 03:04:14;;;;;;;27.70;13.62;;;;;;;10.25;62.07;99332.92;2108463;84;29146;-65
2020/12/06 03:07:16;;;;;;;25.55;14.63;;;;;;;10.24;62.07;99333.88;2068653;84;27718;-67
2020/12/06 03:10:18;;;;;;;23.67;14.80;;;;;;;10.23;62.02;99332.66;2090247;84;29266;-68
2020/12/06 03:13:20;;;;;;;24.10;14.53;;;;;;;10.23;62.11;99325.96;2094492;84;30949;-64
2020/12/06 03:16:24;;;;;;;21.73;12.03;;;;;;;10.20;62.09;99325.66;2072984;83;33072;-67
2020/12/06 03:19:26;;;;;;;26.77;14.40;;;;;;;10.20;62.17;99322.98;2107968;82;29662;-68
2020/12/06 03:22:32;;;;;;;22.00;11.75;;;;;;;10.17;62.29;99320.03;2072799;84;27724;-67
2020/12/06 03:25:32;;;;;;;26.90;13.35;;;;;;;10.17;62.10;99321.87;2096330;84;29783;-69
2020/12/06 03:28:35;;;;;;;20.35;12.23;;;;;;;10.19;62.15;99321.27;2078365;82;31150;-69
2020/12/06 03:31:37;;;;;;;17.82;10.65;;;;;;;10.22;62.12;99319.73;2108049;82;33122;-65
2020/12/06 03:34:39;;;;;;;21.70;12.30;;;;;;;10.26;61.90;99317.74;2071927;82;29878;-65
2020/12/06 03:37:41;;;;;;;21.17;12.05;;;;;;;10.27;62.01;99325.66;2096152;84;27699;-65
2020/12/06 03:40:43;;;;;;;19.40;11.18;;;;;;;10.29;61.99;99319.73;2097115;83;28006;-67
2020/12/06 03:43:45;;;;;;;23.52;14.23;;;;;;;10.28;61.98;99319.35;2051176;84;31159;-70
2020/12/06 03:46:47;;;;;;;21.35;12.70;;;;;;;10.28;62.08;99301.95;2102951;83;33617;-68
2020/12/06 03:49:50;;;;;;;21.70;12.60;;;;;;;10.27;62.01;99306.92;2081327;84;28902;-67
2020/12/06 03:52:52;;;;;;;22.73;12.82;;;;;;;10.26;61.95;99314.57;2081921;83;27752;-66
2020/12/06 03:55:54;;;;;;;20.70;13.78;;;;;;;10.25;61.93;99306.66;2125333;82;28832;-68
2020/12/06 03:58:56;;;;;;;23.42;11.15;;;;;;;10.25;61.97;99306.66;2095838;82;31164;-64
2020/12/06 04:01:58;;;;;;;22.32;12.82;;;;;;;10.22;61.85;99299.66;2069372;84;32924;-64
2020/12/06 04:05:01;;;;;;;20.37;12.78;;;;;;;10.22;62.08;99304.17;2087024;83;30013;-64
2020/12/06 04:08:03;;;;;;;21.35;11.38;;;;;;;10.23;61.98;99305.39;2055075;83;27836;-64
2020/12/06 04:11:05;;;;;;;23.75;13.58;;;;;;;10.23;61.71;99301.38;2032577;84;30034;-68
2020/12/06 04:14:08;;;;;;;21.68;13.18;;;;;;;10.22;62.07;99292.97;2040111;84;30725;-67
2020/12/06 04:17:10;;;;;;;26.97;13.70;;;;;;;10.22;62.06;99301.49;2061865;83;34376;-64
2020/12/06 04:20:12;;;;;;;20.92;12.50;;;;;;;10.20;62.05;99305.59;2071705;84;30099;-68
2020/12/06 04:23:14;;;;;;;18.27;10.55;;;;;;;10.20;62.13;99322.98;2083404;83;27682;-64
2020/12/06 04:26:17;;;;;;;21.20;12.58;;;;;;;10.18;61.91;99314.19;2061531;84;28596;-68
2020/12/06 04:29:19;;;;;;;22.13;11.05;;;;;;;10.20;62.15;99322.98;2066263;83;31167;-67
2020/12/06 04:32:21;;;;;;;19.92;10.93;;;;;;;10.19;62.11;99331.97;2061058;83;33032;-64
2020/12/06 04:35:23;;;;;;;19.15;11.88;;;;;;;10.18;62.11;99333.80;2049333;84;29910;-67
2020/12/06 04:38:25;;;;;;;24.60;14.13;;;;;;;10.19;62.21;99350.24;2081057;83;28265;-66
2020/12/06 04:41:28;;;;;;;24.55;13.62;;;;;;;10.18;62.22;99351.20;2046968;84;28922;-68
2020/12/06 04:44:30;;;;;;;22.15;12.70;;;;;;;10.18;62.31;99352.53;2084568;84;32134;-64
2020/12/06 04:47:52;;;;;;;20.40;12.47;;;;;;;10.18;62.31;99354.34;2061731;84;33211;-67
2020/12/06 04:50:55;;;;;;;24.57;12.75;;;;;;;10.15;62.20;99347.87;2084375;84;28775;-65
2020/12/06 04:54:03;;;;;;;20.37;11.68;;;;;;;10.16;62.30;99354.45;2063411;83;27673;-64
2020/12/06 04:57:05;;;;;;;20.95;11.80;;;;;;;10.15;62.35;99355.89;2119859;83;29761;-66
2020/12/06 05:00:10;;;;;;;26.65;13.35;;;;;;;10.12;62.38;99358.27;2107157;84;32220;-67
2020/12/06 05:03:13;;;;;;;20.23;11.63;;;;;;;10.10;62.40;99356.65;2061907;84;33024;-65
2020/12/06 05:06:18;;;;;;;23.07;12.45;;;;;;;10.07;62.49;99356.38;2052294;84;29180;-65
2020/12/06 05:09:22;;;;;;;20.08;11.53;;;;;;;10.03;62.55;99361.04;2122306;83;28110;-66
2020/12/06 05:12:25;;;;;;;20.77;12.28;;;;;;;10.01;62.54;99356.75;2096073;83;28830;-69
2020/12/06 05:15:28;;;;;;;18.37;10.75;;;;;;;9.97;62.61;99349.41;2095856;83;32118;-68
2020/12/06 05:18:32;;;;;;;18.05;10.40;;;;;;;9.93;62.50;99358.57;2074681;83;32892;-66
2020/12/06 05:21:42;;;;;;;17.12;10.55;;;;;;;9.92;62.63;99354.66;2119868;83;28634;-66
2020/12/06 05:24:44;;;;;;;20.57;11.00;;;;;;;9.89;62.64;99349.01;2069386;84;27733;-63
2020/12/06 05:27:46;;;;;;;20.48;12.88;;;;;;;9.88;62.74;99347.28;2026274;83;28836;-68
2020/12/06 05:30:49;;;;;;;23.02;12.33;;;;;;;9.87;62.83;99350.91;2066853;84;30725;-68
2020/12/06 05:33:54;;;;;;;19.42;11.70;;;;;;;9.87;62.82;99337.08;2051663;84;32937;-65
2020/12/06 05:36:57;;;;;;;18.80;11.03;;;;;;;9.87;62.80;99346.44;2102453;84;29171;-68
2020/12/06 05:40:06;;;;;;;18.42;11.38;;;;;;;9.86;62.70;99339.37;2085390;83;27783;-65
2020/12/06 05:43:08;;;;;;;23.47;12.90;;;;;;;9.85;62.74;99343.00;2117097;83;29572;-64
2020/12/06 05:46:16;;;;;;;20.72;11.93;;;;;;;9.85;62.75;99341.66;2090926;83;31012;-66
2020/12/06 05:49:20;;;;;;;21.45;12.33;;;;;;;9.84;62.58;99343.11;2081382;84;33069;-67
2020/12/06 05:52:24;;;;;;;20.97;12.60;;;;;;;9.84;62.67;99351.13;2066862;84;29673;-68
2020/12/06 05:55:26;;;;;;;22.60;13.28;;;;;;;9.84;62.67;99349.30;2090703;84;27692;-68
2020/12/06 05:58:28;;;;;;;23.02;12.95;;;;;;;9.83;62.76;99348.07;2083512;82;28830;-66
2020/12/06 06:01:31;;;;;;;23.27;14.03;;;;;;;9.83;62.74;99334.70;2090880;84;31159;-64
2020/12/06 06:04:40;;;;;;;23.05;13.15;;;;;;;9.83;62.78;99329.34;2068093;84;32661;-70
2020/12/06 06:07:45;;;;;;;24.23;11.15;;;;;;;9.83;62.76;99334.20;2072255;82;30148;-65
2020/12/06 06:11:05;;;;;;;18.73;11.45;;;;;;;9.83;62.72;99330.19;2126640;82;27634;-67
2020/12/06 06:14:09;;;;;;;20.88;12.43;;;;;;;9.84;62.71;99329.73;2100553;81;28875;-69
2020/12/06 06:17:11;;;;;;;20.25;12.68;;;;;;;9.85;62.76;99334.09;2098128;84;31856;-68
2020/12/06 06:20:14;;;;;;;19.85;12.93;;;;;;;9.85;62.85;99324.27;2046340;84;33825;-68
2020/12/06 06:23:17;;;;;;;22.85;13.58;;;;;;;9.85;62.72;99320.26;2084958;83;30102;-65
2020/12/06 06:26:22;;;;;;;18.23;12.15;;;;;;;9.88;62.85;99321.88;2080733;81;28280;-65
2020/12/06 06:29:25;;;;;;;19.40;10.68;;;;;;;9.90;62.86;99325.80;2092611;82;29714;-66
2020/12/06 06:32:28;;;;;;;17.35;11.28;;;;;;;9.93;62.78;99313.09;2084358;84;32943;-63
2020/12/06 06:35:31;;;;;;;20.02;11.12;;;;;;;9.98;62.72;99309.66;2068533;84;33098;-65
2020/12/06 06:38:40;;;;;;;22.52;11.43;;;;;;;10.03;62.67;99306.68;2110986;84;30048;-64
2020/12/06 06:41:42;;;;;;;19.42;12.03;;;;;;;10.08;62.68;99307.72;2093446;83;27718;-66
2020/12/06 06:44:47;;;;;;;19.32;11.45;;;;;;;10.12;62.55;99301.22;2080849;83;28403;-66
2020/12/06 06:47:50;;;;;;;18.12;12.28;;;;;;;10.16;62.29;99282.67;2074539;83;32056;-64
2020/12/06 06:50:53;;;;;;;18.45;12.47;;;;;;;10.18;62.54;99290.98;2099699;83;33004;-63
2020/12/06 06:53:56;;;;;;;19.45;11.38;;;;;;;10.19;62.45;99300.72;2091055;84;28946;-63
2020/12/06 06:56:59;;;;;;;19.25;10.75;;;;;;;10.20;62.22;99289.52;2075257;81;27825;-63
2020/12/06 07:00:04;;;;;;;19.67;12.37;;;;;;;10.22;61.90;99301.49;2108821;83;28835;-66
2020/12/06 07:03:12;;;;;;;19.20;11.70;;;;;;;10.22;62.16;99302.83;2089149;81;31993;-64
2020/12/06 07:10:19;;;;;;;20.10;12.53;;;;;;;10.21;61.92;99311.32;2019609;86;29174;-63
2020/12/06 07:13:33;;;;;;;21.67;12.80;;;;;;;10.22;62.22;99322.41;2324368;76;31790;-64
2020/12/06 07:16:35;;;;;;;21.23;13.48;;;;;;;10.14;62.26;99315.37;2280366;77;27701;-63
2020/12/06 07:19:37;;;;;;;16.90;10.63;;;;;;;10.11;62.29;99316.40;2232180;78;29687;-63
2020/12/06 07:22:40;;;;;;;22.05;13.43;;;;;;;10.07;62.31;99308.21;2184823;77;31173;-62
2020/12/06 07:25:43;;;;;;;18.85;11.85;;;;;;;10.06;62.38;99306.95;2226427;77;33089;-63
2020/12/06 07:28:45;;;;;;;17.67;12.15;;;;;;;10.03;62.45;99304.00;2266452;77;29560;-62
2020/12/06 07:32:11;;;;;;;21.20;13.08;;;;;;;9.99;62.47;99303.34;2213287;77;27761;-64
2020/12/06 07:35:15;;;;;;;20.43;11.90;;;;;;;9.96;62.51;99304.00;2096421;84;28609;-61
2020/12/06 07:38:18;;;;;;;17.75;12.33;;;;;;;9.95;62.45;99300.47;2050525;85;31156;-62
2020/12/06 07:41:20;;;;;;;19.85;12.93;;;;;;;9.97;62.64;99316.42;2049973;85;33124;-61
2020/12/06 07:44:24;;;;;;;19.82;12.20;;;;;;;9.99;62.64;99307.36;2057476;86;28869;-62
2020/12/06 07:47:27;;;;;;;22.27;12.58;;;;;;;10.01;62.59;99316.13;2095138;84;27757;-62
2020/12/06 07:50:29;;;;;;;22.65;13.50;;;;;;;10.04;62.70;99321.28;2026625;85;28858;-62
2020/12/06 07:53:49;;;;;;;21.60;12.90;;;;;;;10.06;62.63;99329.23;2049218;85;33436;-62
2020/12/06 07:56:53;;;;;;;19.82;11.63;;;;;;;10.09;62.67;99322.36;2089878;83;34052;-62
2020/12/06 08:00:12;;;;;;;19.43;12.53;;;;;;;10.17;62.63;99326.72;2236776;78;32200;-65
2020/12/06 08:03:15;;;;;;;22.87;12.60;;;;;;;10.15;62.52;99330.47;2157396;79;27726;-62
2020/12/06 08:06:38;;;;;;;19.87;12.53;;;;;;;10.19;62.70;99340.00;2142860;81;29571;-62
2020/12/06 08:09:41;;;;;;;17.57;12.55;;;;;;;10.21;62.68;99336.75;1959033;89;32050;-64
2020/12/06 08:12:47;;;;;;;19.92;11.05;;;;;;;10.23;62.64;99336.67;1962518;90;33125;-65
2020/12/06 08:15:49;;;;;;;;;;;;;;;10.27;63.11;99332.81;1917542;91;28592;-66
2020/12/06 08:19:02;;;;;;;15.95;9.45;;;;;;;10.36;62.63;99343.41;1949926;90;27841;-68
2020/12/06 08:22:05;;;;;;;18.52;10.30;;;;;;;10.41;63.69;99339.54;1951426;90;29623;-69
2020/12/06 08:25:08;;;;;;;22.77;11.33;;;;;;;10.65;63.65;99338.88;1950487;90;30931;-69
2020/12/06 08:28:10;;;;;;;20.82;11.88;;;;;;;10.96;63.44;99337.34;1950995;90;33340;-66
2020/12/06 08:31:24;;;;;;;16.73;11.68;;;;;;;11.30;62.67;99339.09;1947529;90;29835;-66
2020/12/06 08:34:25;;;;;;;16.17;10.50;;;;;;;11.34;61.45;99342.78;1981420;88;27821;-64
2020/12/06 08:37:34;;;;;;;17.10;11.25;;;;;;;11.33;61.20;99337.54;1988680;87;28816;-66
2020/12/06 08:40:37;;;;;;;19.35;13.28;;;;;;;11.31;61.01;99353.72;1988827;88;31163;-66
2020/12/06 08:43:55;;;;;;;17.40;11.68;;;;;;;11.30;61.02;99351.16;2011932;88;33106;-66
2020/12/06 08:46:57;;;;;;;19.67;10.32;;;;;;;11.29;60.24;99370.39;2016157;88;28930;-66
2020/12/06 08:50:10;;;;;;;16.52;10.28;;;;;;;11.30;60.72;99354.67;1993965;88;27755;-68
2020/12/06 08:53:12;;;;;;;19.07;11.53;;;;;;;11.32;61.02;99351.91;2030120;87;28703;-66
2020/12/06 08:56:30;;;;;;;16.65;10.43;;;;;;;11.33;60.74;99353.63;1980894;88;31159;-67
2020/12/06 08:59:37;;;;;;;16.10;11.68;;;;;;;11.35;60.87;99353.89;1981230;88;34580;-69
2020/12/06 09:02:40;;;;;;;17.35;10.90;;;;;;;11.39;60.32;99367.48;1980258;88;29637;-67
2020/12/06 09:05:45;;;;;;;13.72;8.78;;;;;;;11.49;60.41;99368.17;1972013;88;27691;-70
2020/12/06 09:08:48;;;;;;;16.90;10.75;;;;;;;11.54;60.19;99362.86;2030869;86;28858;-71
2020/12/06 09:11:55;;;;;;;16.82;10.13;;;;;;;11.61;60.20;99365.13;1992634;87;32127;-66
2020/12/06 09:14:57;;;;;;;15.75;10.35;;;;;;;11.67;59.85;99360.66;1990819;87;32999;-65
2020/12/06 09:18:01;;;;;;;15.60;9.90;;;;;;;11.72;60.04;99357.69;2034576;86;28870;-66
2020/12/06 09:21:05;;;;;;;13.18;9.15;;;;;;;11.73;59.80;99354.04;2030579;86;28276;-64
2020/12/06 09:24:08;;;;;;;16.15;9.80;;;;;;;11.80;59.63;99352.63;2008155;87;28834;-68
2020/12/06 09:27:10;;;;;;;16.40;11.43;;;;;;;11.84;59.74;99346.93;2005888;87;30403;-66
2020/12/06 09:30:12;;;;;;;14.35;9.95;;;;;;;11.85;59.65;99344.63;2007445;87;33143;-68
2020/12/06 09:33:15;;;;;;;12.23;9.25;;;;;;;11.86;59.81;99354.39;2015296;87;28422;-67
2020/12/06 09:36:17;;;;;;;14.73;9.13;;;;;;;11.89;59.52;99349.78;2041301;85;27881;-68
2020/12/06 09:39:19;;;;;;;12.70;8.75;;;;;;;11.92;59.34;99358.97;2031664;87;28947;-66
2020/12/06 09:42:22;;;;;;;14.43;10.18;;;;;;;11.95;59.33;99360.09;2053688;85;32343;-68
2020/12/06 09:45:24;;;;;;;14.78;9.83;;;;;;;11.96;59.73;99359.97;2031586;87;33885;-69
2020/12/06 09:48:26;;;;;;;15.63;9.05;;;;;;;11.97;59.21;99361.69;2031602;87;30343;-67
2020/12/06 09:51:28;;;;;;;16.80;9.63;;;;;;;12.00;59.53;99349.44;2011766;87;27773;-65
2020/12/06 09:54:31;;;;;;;13.85;8.68;;;;;;;12.00;59.54;99344.06;2038794;87;28946;-61
2020/12/06 09:57:35;;;;;;;17.05;11.28;;;;;;;12.03;59.00;99338.11;2030687;87;31243;-58
2020/12/06 10:00:37;;;;;;;15.37;9.90;;;;;;;12.00;59.06;99332.45;2035329;87;33688;-62
2020/12/06 10:03:40;;;;;;;16.45;10.82;;;;;;;11.99;58.98;99333.45;2032610;86;31217;-61
2020/12/06 10:06:42;;;;;;;14.13;9.98;;;;;;;11.96;58.90;99330.95;2009224;87;27658;-60
2020/12/06 10:09:45;;;;;;;14.13;9.45;;;;;;;11.93;58.92;99330.66;2054717;86;29549;-60
2020/12/06 10:12:47;;;;;;;16.32;9.95;;;;;;;11.92;58.99;99327.59;2028711;87;31899;-62
2020/12/06 10:15:50;;;;;;;12.58;8.45;;;;;;;11.95;58.92;99327.89;2030369;87;33510;-59
2020/12/06 10:18:54;;;;;;;18.42;10.85;;;;;;;11.93;58.52;99327.13;2021799;86;29575;-61
2020/12/06 10:21:56;;;;;;;17.02;10.98;;;;;;;11.93;58.99;99328.47;2009537;87;27756;-68
2020/12/06 10:24:59;;;;;;;16.67;11.05;;;;;;;11.91;58.95;99325.91;2010778;87;28923;-67
2020/12/06 10:28:01;;;;;;;17.25;11.38;;;;;;;11.92;59.05;99322.73;1985072;88;31560;-61
2020/12/06 10:31:04;;;;;;;15.48;11.10;;;;;;;11.93;59.10;99327.97;2006659;87;33134;-66
2020/12/06 10:34:06;;;;;;;17.77;11.28;;;;;;;11.96;59.21;99322.89;1979055;87;28627;-60
2020/12/06 10:37:09;;;;;;;19.77;10.88;;;;;;;12.01;59.23;99326.12;2010155;87;27617;-62
2020/12/06 10:40:16;;;;;;;12.25;8.75;;;;;;;12.04;59.21;99320.53;1993114;86;29988;-63
2020/12/06 10:43:29;;;;;;;16.62;11.05;;;;;;;12.02;59.12;99317.59;2008234;87;31152;-67
2020/12/06 10:46:31;;;;;;;18.95;11.48;;;;;;;11.99;59.25;99318.19;1997774;87;33187;-63
2020/12/06 10:49:40;;;;;;;17.12;11.10;;;;;;;11.96;59.29;99319.71;2034638;86;29601;-60
2020/12/06 10:52:38;;;;;;;20.60;11.12;;;;;;;11.94;59.25;99318.12;1971582;87;27811;-63
2020/12/06 10:55:40;;;;;;;20.50;11.88;;;;;;;11.89;59.04;99322.48;2005142;87;28608;-60
2020/12/06 10:58:43;;;;;;;16.97;9.53;;;;;;;11.86;59.09;99315.98;1998679;88;31101;-64
2020/12/06 11:01:46;;;;;;;17.82;11.10;;;;;;;11.86;58.64;99319.50;1978883;87;33651;-62
2020/12/06 11:04:49;;;;;;;23.85;12.75;;;;;;;11.88;58.94;99324.78;2011120;87;30255;-65
2020/12/06 11:07:51;;;;;;;17.48;12.40;;;;;;;11.90;59.11;99324.19;2027463;86;27710;-65
2020/12/06 11:10:53;;;;;;;22.93;12.98;;;;;;;11.93;59.34;99330.66;2052370;85;28913;-64
2020/12/06 11:13:56;;;;;;;26.55;13.10;;;;;;;11.95;59.31;99338.13;2053102;84;31612;-68
2020/12/06 11:16:58;;;;;;;19.80;11.57;;;;;;;12.00;58.98;99323.06;2036529;87;34456;-62
2020/12/06 11:20:03;;;;;;;17.35;10.98;;;;;;;12.07;58.82;99321.66;2052721;85;28875;-60
2020/12/06 11:23:05;;;;;;;16.73;10.30;;;;;;;12.16;58.62;99318.80;2020528;86;27915;-62
2020/12/06 11:26:08;;;;;;;18.27;11.40;;;;;;;12.26;58.88;99323.87;1944192;90;29586;-61
2020/12/06 11:29:11;;;;;;;14.98;10.72;;;;;;;12.35;58.53;99321.50;1978931;88;31900;-61
2020/12/06 11:32:14;;;;;;;16.05;9.88;;;;;;;12.42;58.43;99326.78;1944146;90;33140;-60
2020/12/06 11:35:17;;;;;;;16.52;10.15;;;;;;;12.48;58.27;99324.16;1956190;89;28897;-60
2020/12/06 11:38:20;;;;;;;17.40;10.45;;;;;;;12.52;58.01;99314.41;1905533;90;27679;-59
2020/12/06 11:41:24;;;;;;;16.73;9.03;;;;;;;12.57;58.17;99314.06;1964839;89;29282;-60
2020/12/06 11:44:27;;;;;;;18.15;10.18;;;;;;;12.60;57.69;99313.84;1986412;89;31244;-60
2020/12/06 11:47:29;;;;;;;17.55;10.90;;;;;;;12.63;57.30;99312.74;1977033;87;33976;-60
2020/12/06 11:50:33;;;;;;;18.98;10.38;;;;;;;12.66;57.81;99317.39;1965511;89;29701;-60
2020/12/06 11:53:36;;;;;;;17.52;12.03;;;;;;;12.70;57.66;99320.73;1933707;91;27648;-60
2020/12/06 11:56:39;;;;;;;16.60;11.48;;;;;;;12.72;57.25;99323.66;1964223;88;28485;-59
2020/12/06 11:59:41;;;;;;;16.48;9.88;;;;;;;12.73;57.68;99321.86;2040034;87;31404;-60
2020/12/06 12:02:44;;;;;;;16.80;10.48;;;;;;;12.74;57.70;99322.23;1952562;88;33853;-60
2020/12/06 12:05:49;;;;;;;18.50;11.30;;;;;;;12.71;57.76;99319.27;1974207;87;28649;-60
2020/12/06 12:08:52;;;;;;;;;;;;;;;12.66;57.79;99316.55;2002119;86;27826;-59
2020/12/06 12:11:54;;;;;;;17.62;10.28;;;;;;;12.63;58.04;99312.74;1988646;88;29899;-60
2020/12/06 12:14:56;;;;;;;14.68;9.73;;;;;;;12.58;58.01;99322.49;1965042;88;31643;-59
2020/12/06 12:18:00;;;;;;;16.70;10.23;;;;;;;12.54;57.89;99312.94;1956804;88;32922;-60
2020/12/06 12:21:03;;;;;;;17.10;10.95;;;;;;;12.51;57.76;99310.47;2008958;86;28628;-59
2020/12/06 12:24:05;;;;;;;14.90;9.33;;;;;;;12.47;58.09;99309.84;2019838;86;27905;-59
2020/12/06 12:27:08;;;;;;;16.75;10.53;;;;;;;12.46;58.10;99300.07;1995729;88;28590;-59
2020/12/06 12:30:10;;;;;;;18.87;10.58;;;;;;;12.45;57.80;99301.91;1947226;88;31015;-59
2020/12/06 12:33:13;;;;;;;15.85;9.90;;;;;;;12.45;57.89;99298.36;1936218;89;32994;-64
2020/12/06 12:36:15;;;;;;;16.90;9.58;;;;;;;12.45;57.66;99301.91;1900020;89;28889;-59
2020/12/06 12:39:17;;;;;;;18.85;10.55;;;;;;;12.44;57.74;99302.88;1982806;87;27744;-59
2020/12/06 12:42:20;;;;;;;16.95;10.85;;;;;;;12.42;57.74;99302.14;1971668;88;28949;-60
2020/12/06 12:45:23;;;;;;;19.17;10.80;;;;;;;12.39;57.61;99310.41;1935519;89;32939;-60
2020/12/06 12:48:25;;;;;;;21.52;10.65;;;;;;;12.35;57.81;99300.02;1967385;88;33141;-61
2020/12/06 12:51:29;;;;;;;19.75;11.55;;;;;;;12.29;57.88;99299.48;1990431;88;29095;-61
2020/12/06 12:54:33;;;;;;;17.45;10.05;;;;;;;12.24;58.03;99300.80;1977624;89;27785;-63
2020/12/06 12:57:36;;;;;;;15.40;9.73;;;;;;;12.19;58.06;99287.70;2023971;87;28687;-62
2020/12/06 13:00:38;;;;;;;17.00;10.75;;;;;;;12.13;58.23;99288.14;2014132;86;31190;-62
2020/12/06 13:03:40;;;;;;;18.77;11.15;;;;;;;12.07;58.18;99284.58;1987237;88;34136;-62
2020/12/06 13:06:43;;;;;;;17.10;10.68;;;;;;;12.00;58.20;99282.80;1970186;88;29672;-62
2020/12/06 13:09:46;;;;;;;19.20;10.63;;;;;;;11.94;58.34;99272.48;1953825;90;28173;-62
2020/12/06 13:12:49;;;;;;;17.45;10.50;;;;;;;11.89;58.59;99266.58;1978979;88;30193;-61
2020/12/06 13:15:52;;;;;;;19.48;11.75;;;;;;;11.83;58.58;99266.05;2028505;87;31110;-62
2020/12/06 13:18:55;;;;;;;21.10;12.65;;;;;;;11.80;58.74;99269.44;2006569;88;33812;-61
2020/12/06 13:21:57;;;;;;;20.08;13.20;;;;;;;11.78;58.93;99261.98;2008348;88;29186;-62
2020/12/06 13:25:00;;;;;;;16.90;9.98;;;;;;;11.74;58.94;99265.88;1985572;88;28179;-61
2020/12/06 13:28:02;;;;;;;18.73;10.70;;;;;;;11.73;58.97;99261.47;1982755;88;28906;-63
2020/12/06 13:31:05;;;;;;;15.10;9.53;;;;;;;11.72;59.06;99267.80;1964953;88;31321;-62
2020/12/06 13:34:08;;;;;;;18.82;10.98;;;;;;;11.70;59.15;99259.38;2006212;88;33961;-65
2020/12/06 13:37:11;;;;;;;21.07;11.95;;;;;;;11.69;59.21;99255.45;1965144;88;28968;-64
2020/12/06 13:40:18;;;;;;;17.80;11.63;;;;;;;11.67;59.29;99257.38;1984854;88;27754;-63
2020/12/06 13:43:20;;;;;;;15.63;10.32;;;;;;;11.64;59.29;99261.64;1985178;88;29114;-62
2020/12/06 13:46:24;;;;;;;24.27;12.95;;;;;;;11.64;59.32;99259.80;1965261;88;32141;-62
2020/12/06 13:49:27;;;;;;;17.05;9.93;;;;;;;11.65;59.38;99269.56;1982933;88;33052;-62
2020/12/06 13:52:29;;;;;;;17.98;10.35;;;;;;;11.65;59.22;99261.52;1964901;88;29191;-61
2020/12/06 13:55:32;;;;;;;17.30;10.63;;;;;;;11.67;59.23;99273.01;1973923;90;27663;-64
2020/12/06 13:58:35;;;;;;;15.60;8.95;;;;;;;11.70;59.36;99278.16;1966037;90;28955;-63
2020/12/06 14:01:37;;;;;;;14.85;9.55;;;;;;;11.70;59.25;99274.14;1953563;90;30795;-62
2020/12/06 14:04:39;;;;;;;14.18;8.68;;;;;;;11.71;59.29;99265.59;1952965;90;33142;-64
2020/12/06 14:07:46;;;;;;;26.10;10.78;;;;;;;11.73;59.14;99258.30;1933835;90;29024;-63
2020/12/06 14:10:48;;;;;;;19.80;11.20;;;;;;;11.75;59.06;99268.94;1976649;88;28183;-62